Pagina principale
METAR-TAF:

METAR-TAF

Aeroporti :

Florennes, Belgio

latitudine: 50-14N, longitudine: 004-39E, altezza: 279 m

Osservazione

Il bollettino è stato emesso 17 minuti fa, alle 18:46 UTC
Vento 26 kt da ovest con raffiche fino a 43 kt
Temperature 8°C
Umidità 93%
Pressione 1005 hPa
Visibilità: 1300 m
pioggia forte

METAR: EBFS 161846Z AUTO 26026G43KT 1300 +RA FEW011/// BKN026/// BKN034/// 08/07 Q1005 AMB

Ora: 20:03 (19:03 UTC)


TAF: mancante

Osservazioni e previsioni meteorologiche di più di 4000 aeroporti (messaggi METAR e TAF).

Le stazioni disponibili sono rappresentate dai dischi gialli e rossi sulla carta.

Puntare il mouse per vedere il nome della stazione.

Clicca sopra per visualizzare le osservazioni e previsioni meteorologiche.

Per cambiare la mappa : fare clic sui pulsanti verdi con una croce nera per ingrandire, il pulsante verde con un trattino per diminuire, o sulla freccia verde per le mappe adiacenti.


METAR-TAF: